createdAt,value
2019-05-17T00:00:48.289Z,90.75
2019-05-17T00:03:21.762Z,90.98
2019-05-17T00:05:53.261Z,91.01
2019-05-17T00:08:33.900Z,90.63
2019-05-17T00:10:59.004Z,91.04
2019-05-17T00:13:30.664Z,90.73
2019-05-17T00:16:02.193Z,90.60
2019-05-17T00:18:34.458Z,90.43
2019-05-17T00:21:07.691Z,90.95
2019-05-17T00:23:40.229Z,90.90
2019-05-17T00:26:12.576Z,91.14
2019-05-17T00:28:46.786Z,91.20
2019-05-17T00:31:17.668Z,90.37
2019-05-17T00:33:50.201Z,90.51
2019-05-17T00:36:21.876Z,90.85
2019-05-17T00:38:56.651Z,90.65
2019-05-17T00:41:27.089Z,90.55
2019-05-17T00:43:58.702Z,90.38
2019-05-17T00:46:30.163Z,90.10
2019-05-17T00:49:02.131Z,89.74
2019-05-17T00:51:36.700Z,89.46
2019-05-17T00:54:08.483Z,90.02
2019-05-17T00:56:40.346Z,90.54
2019-05-17T00:59:12.564Z,90.85
2019-05-17T01:01:46.772Z,91.06
2019-05-17T01:04:18.026Z,90.94
2019-05-17T01:06:50.448Z,90.78
2019-05-17T01:09:21.939Z,90.30
2019-05-17T01:11:53.821Z,90.20
2019-05-17T01:14:26.569Z,90.21
2019-05-17T01:16:58.848Z,90.20
2019-05-17T01:19:30.130Z,90.04
2019-05-17T01:22:02.543Z,89.97
2019-05-17T01:24:36.713Z,90.42
2019-05-17T01:27:09.020Z,90.41
2019-05-17T01:29:40.425Z,90.32
2019-05-17T01:32:11.820Z,90.60
2019-05-17T01:34:43.605Z,91.17
2019-05-17T01:37:16.986Z,91.38
2019-05-17T01:39:49.035Z,91.44
2019-05-17T01:42:21.387Z,91.60
2019-05-17T01:44:53.026Z,91.94
2019-05-17T01:47:27.105Z,92.01
2019-05-17T01:49:59.213Z,91.41
2019-05-17T01:52:31.705Z,91.21
2019-05-17T01:55:03.787Z,91.19
2019-05-17T01:57:37.106Z,91.31
2019-05-17T02:00:11.214Z,91.31
2019-05-17T02:02:47.103Z,91.07
2019-05-17T02:05:18.801Z,91.03
2019-05-17T02:07:51.325Z,91.32
2019-05-17T02:10:23.663Z,91.34
2019-05-17T02:12:57.035Z,91.42
2019-05-17T02:15:28.681Z,91.33
2019-05-17T02:18:00.085Z,91.08
2019-05-17T02:20:33.080Z,90.89
2019-05-17T02:23:07.264Z,90.79
2019-05-17T02:25:38.217Z,91.09
2019-05-17T02:28:12.079Z,91.23
2019-05-17T02:30:44.136Z,91.39
2019-05-17T02:33:16.670Z,91.40
2019-05-17T02:35:48.866Z,91.05
2019-05-17T02:38:22.412Z,91.29
2019-05-17T02:40:53.877Z,91.34
2019-05-17T02:43:26.042Z,91.07
2019-05-17T02:45:57.961Z,90.79
2019-05-17T02:48:29.651Z,90.70
2019-05-17T02:51:03.484Z,90.90
2019-05-17T02:53:34.827Z,90.96
2019-05-17T02:56:07.343Z,90.98
2019-05-17T02:58:39.264Z,90.57
2019-05-17T03:01:12.869Z,91.10
2019-05-17T03:03:44.743Z,91.08
2019-05-17T03:06:16.409Z,90.75
2019-05-17T03:08:48.409Z,90.53
2019-05-17T03:11:22.650Z,90.61
2019-05-17T03:13:54.010Z,90.76
2019-05-17T03:16:26.546Z,91.14
2019-05-17T03:18:57.664Z,91.39
2019-05-17T03:21:28.977Z,91.45
2019-05-17T03:24:03.172Z,91.55
2019-05-17T03:26:33.713Z,91.50
2019-05-17T03:29:06.268Z,91.29
2019-05-17T03:31:48.995Z,91.17
2019-05-17T03:34:16.944Z,91.08
2019-05-17T03:36:47.177Z,91.05
2019-05-17T03:39:18.427Z,90.97
2019-05-17T03:41:49.788Z,91.07
2019-05-17T03:44:22.615Z,90.77
2019-05-17T03:46:54.441Z,90.86
2019-05-17T03:49:26.686Z,90.74
2019-05-17T03:51:58.139Z,90.96
2019-05-17T03:54:32.258Z,91.02
2019-05-17T03:57:03.298Z,91.30
2019-05-17T03:59:34.610Z,91.32
2019-05-17T04:02:07.186Z,91.33
2019-05-17T04:04:38.583Z,91.45
2019-05-17T04:07:12.744Z,91.58
2019-05-17T04:09:43.827Z,91.98
2019-05-17T04:12:15.385Z,92.10
2019-05-17T04:14:47.347Z,92.23
2019-05-17T04:17:22.579Z,91.99
2019-05-17T04:19:53.583Z,91.61
2019-05-17T04:22:26.220Z,91.47
2019-05-17T04:24:58.742Z,91.50
2019-05-17T04:27:32.773Z,91.42
2019-05-17T04:30:04.828Z,91.38
2019-05-17T04:32:36.986Z,91.55
2019-05-17T04:35:12.568Z,91.72
2019-05-17T04:37:44.510Z,91.81
2019-05-17T04:40:15.729Z,91.69
2019-05-17T04:42:46.597Z,91.91
2019-05-17T04:45:18.249Z,92.06
2019-05-17T04:47:52.669Z,92.45
2019-05-17T04:50:23.218Z,92.57
2019-05-17T04:52:55.334Z,92.63
2019-05-17T04:55:27.108Z,92.53
2019-05-17T04:57:59.330Z,92.31
2019-05-17T05:00:34.009Z,91.95
2019-05-17T05:03:06.415Z,91.53
2019-05-17T05:05:42.547Z,91.81
2019-05-17T05:08:13.479Z,91.26
2019-05-17T05:10:44.956Z,90.74
2019-05-17T05:13:16.562Z,90.88
2019-05-17T05:15:47.544Z,90.65
2019-05-17T05:18:21.906Z,90.61
2019-05-17T05:20:52.653Z,90.35
2019-05-17T05:23:24.400Z,90.52
2019-05-17T05:25:56.378Z,90.70
2019-05-17T05:28:27.735Z,90.88
2019-05-17T05:31:01.849Z,90.70
2019-05-17T05:33:33.510Z,90.59
2019-05-17T05:36:06.453Z,88.99
2019-05-17T05:38:37.907Z,89.52
2019-05-17T05:41:12.230Z,89.44
2019-05-17T05:43:44.746Z,88.99
2019-05-17T05:46:16.389Z,88.52
2019-05-17T05:48:48.824Z,87.01
2019-05-17T05:51:21.647Z,86.75
2019-05-17T05:53:54.320Z,86.94
2019-05-17T05:56:26.492Z,84.96
2019-05-17T05:58:58.703Z,84.28
2019-05-17T06:01:32.503Z,83.46
2019-05-17T06:04:04.136Z,84.18
2019-05-17T06:06:36.856Z,84.58
2019-05-17T06:09:12.005Z,83.52
2019-05-17T06:11:44.048Z,82.33
2019-05-17T06:14:15.594Z,82.56
2019-05-17T06:16:48.009Z,82.60
2019-05-17T06:19:22.246Z,82.49
2019-05-17T06:21:53.745Z,81.80
2019-05-17T06:24:27.507Z,82.56
2019-05-17T06:27:03.231Z,82.44
2019-05-17T06:29:35.349Z,80.47
2019-05-17T06:32:07.723Z,79.72
2019-05-17T06:34:42.079Z,78.99
2019-05-17T06:37:16.565Z,80.27
2019-05-17T06:39:48.654Z,79.56
2019-05-17T06:42:21.672Z,78.27
2019-05-17T06:44:54.509Z,76.91
2019-05-17T06:47:25.724Z,77.08
2019-05-17T06:52:58.542Z,76.23
2019-05-17T06:55:31.491Z,76.89
2019-05-17T06:58:02.453Z,76.50
2019-05-17T07:00:33.597Z,76.10
2019-05-17T07:03:04.982Z,76.31
2019-05-17T07:05:40.352Z,76.47
2019-05-17T07:08:11.006Z,78.17
2019-05-17T07:10:46.670Z,79.04
2019-05-17T07:13:19.671Z,78.86
2019-05-17T07:15:51.071Z,79.36
2019-05-17T07:18:22.261Z,79.43
2019-05-17T07:20:53.255Z,79.44
2019-05-17T07:23:24.648Z,79.73
2019-05-17T07:25:55.398Z,79.75
2019-05-17T07:28:25.766Z,79.74
2019-05-17T07:30:59.630Z,80.40
2019-05-17T07:33:30.683Z,80.71
2019-05-17T07:36:01.585Z,80.44
2019-05-17T07:38:32.678Z,80.61
2019-05-17T07:41:03.588Z,80.90
2019-05-17T07:43:34.004Z,79.85
2019-05-17T07:46:05.384Z,79.90
2019-05-17T07:48:36.108Z,79.65
2019-05-17T07:51:10.123Z,79.56
2019-05-17T07:53:41.091Z,79.59
2019-05-17T07:56:12.367Z,79.05
2019-05-17T07:58:44.701Z,78.39
2019-05-17T08:01:16.284Z,78.13
2019-05-17T08:03:50.112Z,77.91
2019-05-17T08:06:20.076Z,78.57
2019-05-17T08:08:51.270Z,78.61
2019-05-17T08:11:23.144Z,77.25
2019-05-17T08:13:55.463Z,77.63
2019-05-17T08:16:26.990Z,78.21
2019-05-17T08:18:57.287Z,77.41
2019-05-17T08:21:30.490Z,76.76
2019-05-17T08:24:01.729Z,77.27
2019-05-17T08:26:32.279Z,76.32
2019-05-17T08:29:03.100Z,77.45
2019-05-17T08:31:33.645Z,77.12
2019-05-17T08:34:05.080Z,77.41
2019-05-17T08:36:35.930Z,76.70
2019-05-17T08:39:06.734Z,76.59
2019-05-17T08:41:37.333Z,77.49
2019-05-17T08:44:10.049Z,76.98
2019-05-17T08:46:40.986Z,76.33
2019-05-17T08:49:11.624Z,74.00
2019-05-17T08:51:44.547Z,74.77
2019-05-17T08:54:15.760Z,75.28
2019-05-17T08:56:50.290Z,75.12
2019-05-17T08:59:21.860Z,73.75
2019-05-17T09:01:53.517Z,74.88
2019-05-17T09:04:25.677Z,75.59
2019-05-17T09:07:00.046Z,75.15
2019-05-17T09:09:32.762Z,76.09
2019-05-17T09:12:04.477Z,75.29
2019-05-17T09:14:36.318Z,75.59
2019-05-17T09:17:10.318Z,75.90
2019-05-17T09:19:40.834Z,75.52
2019-05-17T09:22:11.462Z,75.77
2019-05-17T09:24:42.949Z,75.62
2019-05-17T09:27:19.585Z,75.76
2019-05-17T09:29:50.775Z,74.98
2019-05-17T09:32:21.927Z,73.49
2019-05-17T09:34:53.410Z,73.34
2019-05-17T09:37:26.059Z,73.81
2019-05-17T09:39:57.134Z,73.95
2019-05-17T09:42:30.024Z,74.84
2019-05-17T09:45:02.757Z,74.20
2019-05-17T09:47:33.441Z,72.38
2019-05-17T09:50:06.256Z,72.35
2019-05-17T09:52:40.581Z,72.05
2019-05-17T09:55:12.032Z,70.57
2019-05-17T09:57:44.759Z,72.89
2019-05-17T10:00:17.439Z,71.82
2019-05-17T10:02:47.342Z,71.88
2019-05-17T10:05:17.265Z,70.57
2019-05-17T10:07:47.243Z,70.84
2019-05-17T10:10:20.081Z,71.17
2019-05-17T10:12:49.966Z,69.55
2019-05-17T10:15:21.012Z,69.42
2019-05-17T10:17:51.642Z,70.36
2019-05-17T10:20:21.745Z,70.60
2019-05-17T10:22:51.727Z,70.10
2019-05-17T10:25:21.595Z,71.09
2019-05-17T10:27:51.500Z,71.68
2019-05-17T10:30:21.731Z,69.99
2019-05-17T10:32:52.065Z,69.17
2019-05-17T10:35:21.808Z,69.27
2019-05-17T10:37:52.725Z,71.54
2019-05-17T10:40:23.849Z,69.29
2019-05-17T10:42:53.758Z,69.15
2019-05-17T10:45:24.162Z,69.32
2019-05-17T10:47:53.992Z,70.39
2019-05-17T10:50:23.757Z,70.55
2019-05-17T10:52:53.611Z,70.48
2019-05-17T10:55:23.698Z,68.29
2019-05-17T10:57:55.754Z,69.84
2019-05-17T11:00:30.373Z,69.43
2019-05-17T11:03:02.261Z,65.83
2019-05-17T11:05:36.881Z,67.15
2019-05-17T11:08:10.843Z,66.79
2019-05-17T11:10:42.807Z,67.42
2019-05-17T11:13:14.399Z,68.03
2019-05-17T11:15:46.829Z,67.94
2019-05-17T11:18:18.658Z,67.94
2019-05-17T11:20:50.191Z,69.87
2019-05-17T11:23:22.569Z,69.41
2019-05-17T11:25:55.515Z,69.16
2019-05-17T11:28:28.231Z,68.82
2019-05-17T11:31:01.434Z,68.33
2019-05-17T11:33:33.957Z,69.37
2019-05-17T11:36:06.960Z,68.21
2019-05-17T11:38:38.477Z,67.57
2019-05-17T11:41:21.142Z,67.72
2019-05-17T11:43:46.116Z,69.02
2019-05-17T11:46:19.684Z,68.87
2019-05-17T11:48:51.080Z,67.38
2019-05-17T11:51:22.686Z,67.94
2019-05-17T11:53:54.673Z,66.67
2019-05-17T11:56:26.545Z,66.07
2019-05-17T11:58:58.385Z,66.31
2019-05-17T12:01:30.470Z,67.13
2019-05-17T12:04:03.863Z,66.57
2019-05-17T12:06:38.480Z,66.14
2019-05-17T12:09:09.765Z,66.55
2019-05-17T12:11:40.477Z,65.49
2019-05-17T12:14:12.435Z,65.12
2019-05-17T12:16:43.382Z,66.06
2019-05-17T12:19:13.803Z,66.77
2019-05-17T12:21:45.252Z,66.70
2019-05-17T12:24:16.178Z,68.01
2019-05-17T12:26:47.583Z,68.56
2019-05-17T12:29:19.805Z,67.50
2019-05-17T12:31:50.206Z,68.24
2019-05-17T12:34:21.994Z,68.33
2019-05-17T12:36:52.430Z,69.97
2019-05-17T12:39:23.237Z,68.12
2019-05-17T12:41:53.836Z,68.99
2019-05-17T12:44:24.823Z,70.74
2019-05-17T12:46:57.232Z,71.79
2019-05-17T12:49:28.027Z,73.68
2019-05-17T12:51:59.874Z,74.49
2019-05-17T12:54:31.754Z,74.75
2019-05-17T12:57:04.804Z,75.34
2019-05-17T12:59:36.476Z,75.60
2019-05-17T13:02:06.759Z,76.83
2019-05-17T13:04:37.276Z,76.81
2019-05-17T13:07:09.331Z,77.71
2019-05-17T13:09:40.238Z,80.25
2019-05-17T13:12:11.652Z,80.27
2019-05-17T13:14:42.733Z,80.35
2019-05-17T13:17:18.943Z,80.54
2019-05-17T13:19:59.319Z,81.07
2019-05-17T13:22:32.363Z,81.22
2019-05-17T13:25:03.701Z,83.51
2019-05-17T13:27:38.284Z,81.02
2019-05-17T13:30:07.705Z,80.96
2019-05-17T13:32:39.063Z,83.18
2019-05-17T13:35:09.798Z,81.26
2019-05-17T13:37:40.157Z,82.21
2019-05-17T13:40:11.888Z,82.32
2019-05-17T13:42:42.619Z,81.31
2019-05-17T13:45:16.644Z,81.08
2019-05-17T13:47:48.073Z,82.12
2019-05-17T13:50:19.276Z,80.27
2019-05-17T13:52:50.574Z,80.36
2019-05-17T13:55:21.839Z,81.83
2019-05-17T13:57:52.656Z,80.72
2019-05-17T14:00:24.381Z,79.07
2019-05-17T14:02:54.647Z,80.15
2019-05-17T14:05:25.300Z,75.17
2019-05-17T14:07:56.841Z,76.34
2019-05-17T14:10:31.523Z,74.14
2019-05-17T14:13:01.450Z,71.11
2019-05-17T14:15:32.937Z,69.94
2019-05-17T14:18:03.950Z,70.97
2019-05-17T14:20:34.677Z,70.60
2019-05-17T14:23:06.025Z,72.09
2019-05-17T14:25:36.919Z,73.63
2019-05-17T14:28:27.726Z,71.77
2019-05-17T14:30:58.428Z,68.35
2019-05-17T14:33:29.442Z,68.53
2019-05-17T14:36:00.382Z,68.28
2019-05-17T14:38:30.716Z,68.15
2019-05-17T14:41:07.672Z,68.29
2019-05-17T14:43:35.166Z,67.60
2019-05-17T14:46:07.196Z,68.89
2019-05-17T14:48:38.895Z,64.42
2019-05-17T14:51:09.977Z,67.11
2019-05-17T14:53:40.796Z,64.83
2019-05-17T14:56:11.643Z,66.11
2019-05-17T14:58:42.310Z,66.98
2019-05-17T15:01:13.634Z,66.95
2019-05-17T15:03:44.220Z,66.43
2019-05-17T15:06:15.113Z,65.36
2019-05-17T15:08:46.521Z,63.96
2019-05-17T15:11:17.578Z,66.14
2019-05-17T15:13:47.633Z,63.68
2019-05-17T15:16:17.451Z,63.34
2019-05-17T15:18:47.672Z,62.52
2019-05-17T15:21:17.590Z,63.33
2019-05-17T15:23:47.803Z,63.55
2019-05-17T15:26:20.699Z,64.32
2019-05-17T15:28:51.022Z,63.97
2019-05-17T15:31:21.142Z,63.65
2019-05-17T15:33:51.050Z,64.38
2019-05-17T15:36:21.058Z,62.03
2019-05-17T15:38:50.967Z,62.30
2019-05-17T15:41:21.238Z,62.48
2019-05-17T15:43:51.030Z,62.48
2019-05-17T15:46:21.532Z,61.65
2019-05-17T15:48:51.811Z,60.88
2019-05-17T15:51:21.884Z,60.76
2019-05-17T15:53:52.135Z,62.34
2019-05-17T15:56:22.917Z,60.90
2019-05-17T15:58:53.231Z,60.35
2019-05-17T16:01:23.778Z,60.23
2019-05-17T16:03:54.560Z,60.39
2019-05-17T16:06:24.655Z,61.27
2019-05-17T16:08:56.107Z,60.46
2019-05-17T16:11:26.897Z,60.72
2019-05-17T16:13:58.152Z,61.03
2019-05-17T16:16:29.220Z,60.48
2019-05-17T16:19:00.486Z,60.84
2019-05-17T16:21:32.866Z,61.48
2019-05-17T16:24:05.624Z,61.23
2019-05-17T16:26:36.377Z,60.65
2019-05-17T16:29:07.514Z,61.40
2019-05-17T16:31:38.149Z,60.79
2019-05-17T16:34:08.953Z,60.48
2019-05-17T16:36:39.957Z,60.01
2019-05-17T16:39:10.208Z,60.67
2019-05-17T16:41:40.996Z,61.78
2019-05-17T16:44:14.655Z,60.95
2019-05-17T16:46:45.389Z,62.02
2019-05-17T16:49:17.608Z,59.62
2019-05-17T16:51:50.862Z,60.48
2019-05-17T16:54:23.351Z,61.26
2019-05-17T16:56:54.097Z,62.31
2019-05-17T16:59:25.283Z,63.05
2019-05-17T17:01:57.373Z,62.34
2019-05-17T17:04:28.634Z,62.51
2019-05-17T17:07:01.570Z,62.54
2019-05-17T17:09:34.144Z,63.25
2019-05-17T17:12:06.060Z,64.57
2019-05-17T17:14:37.505Z,63.38
2019-05-17T17:17:12.331Z,63.51
2019-05-17T17:19:43.312Z,63.59
2019-05-17T17:22:15.568Z,63.34
2019-05-17T17:24:47.341Z,63.60
2019-05-17T17:27:18.338Z,64.29
2019-05-17T17:29:49.380Z,65.36
2019-05-17T17:32:21.877Z,65.43
2019-05-17T17:34:53.864Z,65.40
2019-05-17T17:37:24.936Z,65.66
2019-05-17T17:39:55.935Z,65.67
2019-05-17T17:42:26.560Z,65.83
2019-05-17T17:44:58.010Z,66.27
2019-05-17T17:47:28.579Z,66.66
2019-05-17T17:49:59.521Z,66.68
2019-05-17T17:52:30.383Z,66.96
2019-05-17T17:55:00.699Z,68.33
2019-05-17T17:57:32.287Z,68.22
2019-05-17T18:00:03.159Z,68.02
2019-05-17T18:02:36.221Z,71.05
2019-05-17T18:05:08.654Z,72.08
2019-05-17T18:07:40.153Z,73.54
2019-05-17T18:10:13.895Z,74.00
2019-05-17T18:12:45.575Z,74.06
2019-05-17T18:15:19.874Z,74.47
2019-05-17T18:17:53.088Z,74.08
2019-05-17T18:20:24.956Z,75.02
2019-05-17T18:22:56.493Z,75.78
2019-05-17T18:25:27.812Z,76.78
2019-05-17T18:27:59.091Z,77.72
2019-05-17T18:30:30.425Z,78.73
2019-05-17T18:33:01.897Z,79.32
2019-05-17T18:35:33.697Z,79.46
2019-05-17T18:38:06.696Z,79.39
2019-05-17T18:40:37.899Z,79.53
2019-05-17T18:43:08.979Z,79.43
2019-05-17T18:45:41.023Z,79.39
2019-05-17T18:48:12.538Z,79.65
2019-05-17T18:50:44.100Z,79.71
2019-05-17T18:53:16.990Z,79.43
2019-05-17T18:55:49.620Z,79.57
2019-05-17T18:58:20.621Z,79.52
2019-05-17T19:00:52.244Z,80.08
2019-05-17T19:03:23.457Z,80.07
2019-05-17T19:05:54.658Z,80.24
2019-05-17T19:08:25.779Z,80.61
2019-05-17T19:10:57.818Z,80.78
2019-05-17T19:13:28.930Z,80.99
2019-05-17T19:16:05.057Z,81.08
2019-05-17T19:18:38.316Z,81.17
2019-05-17T19:21:16.662Z,81.34
2019-05-17T19:23:58.789Z,81.15
2019-05-17T19:26:43.371Z,81.83
2019-05-17T19:29:22.294Z,81.83
2019-05-17T19:31:55.166Z,81.85
2019-05-17T19:34:26.702Z,81.77
2019-05-17T19:36:58.075Z,82.57
2019-05-17T19:39:29.136Z,82.32
2019-05-17T19:42:00.276Z,82.74
2019-05-17T19:44:31.326Z,82.42
2019-05-17T19:47:02.756Z,82.14
2019-05-17T19:49:35.391Z,81.43
2019-05-17T19:52:06.501Z,81.73
2019-05-17T19:54:40.898Z,82.48
2019-05-17T19:57:12.507Z,82.29
2019-05-17T19:59:43.469Z,82.16
2019-05-17T20:02:17.329Z,82.39
2019-05-17T20:04:48.526Z,82.45
2019-05-17T20:07:19.423Z,82.36
2019-05-17T20:09:50.869Z,83.11
2019-05-17T20:12:23.802Z,82.90
2019-05-17T20:14:55.033Z,82.78
2019-05-17T20:17:31.000Z,82.88
2019-05-17T20:20:04.772Z,82.84
2019-05-17T20:22:35.784Z,83.46
2019-05-17T20:25:08.924Z,82.79
2019-05-17T20:27:42.318Z,82.96
2019-05-17T20:30:15.252Z,83.37
2019-05-17T20:32:47.475Z,83.03
2019-05-17T20:35:20.319Z,83.16
2019-05-17T20:37:54.179Z,83.03
2019-05-17T20:40:27.171Z,83.33
2019-05-17T20:43:00.547Z,83.62
2019-05-17T20:45:33.699Z,83.65
2019-05-17T20:48:07.392Z,83.85
2019-05-17T20:50:40.106Z,84.16
2019-05-17T20:53:18.937Z,84.23
2019-05-17T20:55:46.441Z,84.37
2019-05-17T20:58:18.087Z,84.32
2019-05-17T21:00:50.209Z,84.37
2019-05-17T21:03:22.358Z,84.63
2019-05-17T21:05:54.619Z,84.25
2019-05-17T21:08:26.898Z,84.53
2019-05-17T21:11:00.017Z,84.39
2019-05-17T21:13:32.559Z,84.55
2019-05-17T21:16:04.350Z,84.61
2019-05-17T21:18:35.851Z,84.48
2019-05-17T21:21:08.418Z,84.43
2019-05-17T21:23:40.653Z,84.61
2019-05-17T21:26:12.597Z,84.43
2019-05-17T21:28:47.090Z,84.33
2019-05-17T21:31:17.613Z,84.55
2019-05-17T21:33:49.273Z,84.80
2019-05-17T21:36:21.542Z,84.81
2019-05-17T21:38:54.653Z,84.51
2019-05-17T21:41:26.573Z,84.24
2019-05-17T21:43:59.351Z,83.98
2019-05-17T21:46:31.699Z,84.01
2019-05-17T21:49:04.236Z,84.39
2019-05-17T21:51:36.264Z,84.63
2019-05-17T21:54:07.980Z,84.55
2019-05-17T21:56:40.203Z,83.93
2019-05-17T21:59:12.802Z,84.26
2019-05-17T22:01:44.944Z,84.38
2019-05-17T22:04:16.967Z,84.54
2019-05-17T22:06:48.451Z,84.56
2019-05-17T22:09:19.849Z,84.71
2019-05-17T22:11:52.637Z,85.19
2019-05-17T22:14:24.280Z,85.09
2019-05-17T22:16:55.839Z,84.70
2019-05-17T22:19:27.579Z,85.57
2019-05-17T22:21:59.357Z,85.27
2019-05-17T22:24:30.943Z,85.08
2019-05-17T22:27:02.258Z,84.97
2019-05-17T22:29:33.788Z,85.13
2019-05-17T22:32:05.332Z,84.94
2019-05-17T22:34:37.440Z,85.19
2019-05-17T22:37:09.062Z,85.58
2019-05-17T22:39:40.156Z,85.30
2019-05-17T22:42:11.667Z,85.20
2019-05-17T22:44:43.583Z,85.23
2019-05-17T22:47:14.942Z,85.72
2019-05-17T22:49:46.295Z,85.95
2019-05-17T22:52:18.053Z,85.68
2019-05-17T22:54:49.933Z,85.69
2019-05-17T22:57:21.521Z,85.87
2019-05-17T22:59:52.914Z,85.96
2019-05-17T23:02:24.746Z,85.81
2019-05-17T23:04:56.802Z,85.69
2019-05-17T23:07:28.373Z,85.67
2019-05-17T23:10:00.211Z,85.81
2019-05-17T23:12:31.952Z,86.14
2019-05-17T23:15:03.740Z,85.87
2019-05-17T23:17:35.003Z,85.44
2019-05-17T23:20:07.183Z,85.34
2019-05-17T23:22:38.982Z,85.57
2019-05-17T23:25:10.721Z,85.84
2019-05-17T23:27:42.129Z,85.41
2019-05-17T23:30:14.397Z,85.61
2019-05-17T23:32:45.683Z,86.19
2019-05-17T23:35:17.205Z,86.11
2019-05-17T23:37:48.405Z,86.80
2019-05-17T23:40:20.158Z,85.97
2019-05-17T23:42:52.058Z,85.47
2019-05-17T23:45:23.742Z,85.86
2019-05-17T23:47:55.082Z,86.22
2019-05-17T23:50:26.926Z,86.80
2019-05-17T23:53:01.001Z,86.72
2019-05-17T23:55:32.369Z,85.78
2019-05-17T23:58:04.225Z,85.71
